Stations météo

réclame
Mon MeteoGroup
Bramham, Grande-Bretagne (99077): Température de l'air & dewpoint: 30.06.2020 00:00:00 - 06.07.2020 00:00:00 (BST)Bramham, Grande-Bretagne (99077): Vitesse du vent & gusts: 30.06.2020 00:00:00 - 06.07.2020 00:00:00 (BST)Bramham, Grande-Bretagne (99077): Direction du vent: 30.06.2020 00:00:00 - 06.07.2020 00:00:00 (BST)Bramham, Grande-Bretagne (99077): Quantités de précipitations: 30.06.2020 00:00:00 - 06.07.2020 00:00:00 (BST)
Date & Time tt [°C] td [°C] ff [km/h] ff [knt] fx [km/h] fx [knt] dd rr [mm]
06.07.2020 00:00:00 11,4 9,1 28 15 - - WSW 0,0
05.07.2020 23:00:00 11,4 9,7 21 11 54 29 W 0,4
05.07.2020 22:00:00 11,9 9,7 28 15 55 30 WSW 2,0
05.07.2020 21:00:00 12,3 9,7 29 16 65 35 WSW 0,4
05.07.2020 20:00:00 14,1 8,1 35 19 78 42 SW 0,0
05.07.2020 19:00:00 13,8 9,5 31 17 61 33 WSW 0,0
05.07.2020 18:00:00 16,0 9,2 29 16 52 28 WSW 0,0
05.07.2020 17:00:00 12,4 9,7 31 17 81 44 WSW 0,4
05.07.2020 16:00:00 16,9 7,2 42 23 70 38 WSW 0,0
05.07.2020 15:00:00 17,1 7,7 37 20 59 32 WSW 0,0
05.07.2020 14:00:00 16,8 7,6 41 22 72 39 WSW 0,0
05.07.2020 13:00:00 15,8 8,5 29 16 61 33 W 0,0
05.07.2020 12:00:00 16,0 8,8 37 20 61 33 WSW 0,0
05.07.2020 11:00:00 15,2 8,3 37 20 67 36 WSW 0,0
05.07.2020 10:00:00 14,9 9,1 31 17 65 35 W 0,0
05.07.2020 09:00:00 14,7 8,6 35 19 57 31 WSW 0,0
05.07.2020 08:00:00 14,4 9,7 29 16 57 31 WSW 0,0
05.07.2020 07:00:00 14,5 10,8 35 19 72 39 WSW 0,0
05.07.2020 06:00:00 15,7 11,2 34 18 61 33 WSW 0,0
05.07.2020 05:00:00 16,4 12,1 34 18 65 35 WSW 0,2
05.07.2020 04:00:00 16,4 14,7 26 14 50 27 SW 0,0
05.07.2020 03:00:00 16,0 14,9 28 15 52 28 SW 0,0
05.07.2020 02:00:00 16,1 14,8 29 16 50 27 SSW 0,0
05.07.2020 01:00:00 17,0 14,5 28 15 - - SSW 0,0
05.07.2020 00:00:00 16,5 14,5 26 14 50 27 S 0,0
04.07.2020 23:00:00 17,0 14,1 21 11 - - S 0,0
04.07.2020 22:00:00 17,1 14,0 22 12 - - SSW 0,0
04.07.2020 21:00:00 17,3 14,1 21 11 - - SSW 0,0
04.07.2020 20:00:00 17,3 14,1 18 10 - - SW 0,0
04.07.2020 19:00:00 17,9 14,3 21 11 - - SW 0,0
04.07.2020 18:00:00 18,2 14,1 22 12 - - SW 0,0
04.07.2020 17:00:00 18,6 14,3 22 12 - - SW 0,0
04.07.2020 16:00:00 18,3 15,1 13 7 - - W 0,0
04.07.2020 15:00:00 18,7 15,1 21 11 - - SSW 0,0
04.07.2020 14:00:00 18,6 15,0 21 11 - - SW 0,0
04.07.2020 13:00:00 17,8 14,7 18 10 - - SW 0,0
04.07.2020 12:00:00 18,4 14,9 22 12 - - SW 0,0
04.07.2020 11:00:00 18,3 14,9 22 12 - - SW 0,0
04.07.2020 10:00:00 17,7 14,9 22 12 - - SW 0,0
04.07.2020 09:00:00 16,5 14,7 15 8 - - SW 0,2
04.07.2020 08:00:00 16,1 14,1 24 13 - - SW 0,0
04.07.2020 07:00:00 15,9 14,2 21 11 - - SW 0,0
04.07.2020 06:00:00 16,0 14,2 18 10 - - SW 0,0
04.07.2020 05:00:00 15,9 14,3 13 7 - - SSW 0,0
04.07.2020 04:00:00 15,7 14,4 16 9 - - SSW 0,2
04.07.2020 03:00:00 15,5 14,2 21 11 - - SSW 0,2
04.07.2020 02:00:00 15,6 13,8 11 6 - - SSW 0,0
04.07.2020 01:00:00 15,4 13,5 11 6 - - S 0,0
04.07.2020 00:00:00 14,8 13,1 11 6 - - S 0,0
03.07.2020 23:00:00 15,3 13,0 21 11 - - SSW 0,0
03.07.2020 22:00:00 15,5 13,0 21 11 - - SW 0,0
03.07.2020 21:00:00 15,7 13,2 28 15 59 32 SW 0,2
03.07.2020 20:00:00 16,6 13,2 37 20 59 32 SW 0,0
03.07.2020 19:00:00 16,5 13,3 42 23 65 35 SSW 0,0
03.07.2020 18:00:00 15,5 13,7 29 16 57 31 SSW 0,2
03.07.2020 17:00:00 16,4 12,7 41 22 65 35 SW 0,0
03.07.2020 16:00:00 17,0 13,0 35 19 59 32 SW 0,0
03.07.2020 15:00:00 18,0 13,2 41 22 63 34 SSW 0,0
03.07.2020 14:00:00 16,9 12,6 34 18 59 32 SSW 0,0
03.07.2020 13:00:00 15,7 12,1 34 18 54 29 SW 0,0
03.07.2020 12:00:00 13,8 12,1 28 15 48 26 SSW 0,4
03.07.2020 11:00:00 13,4 11,8 28 15 52 28 SW 0,2
03.07.2020 10:00:00 13,4 11,0 24 13 - - SSW 0,0
03.07.2020 09:00:00 13,3 10,0 28 15 - - SSW 0,0
03.07.2020 08:00:00 13,0 10,8 21 11 - - SSW 0,0
03.07.2020 07:00:00 12,1 11,1 15 8 - - S 0,2
03.07.2020 06:00:00 11,6 10,7 13 7 - - S 0,0
03.07.2020 05:00:00 11,9 10,4 16 9 - - S 0,0
03.07.2020 04:00:00 12,1 10,7 18 10 - - SSW 0,0
03.07.2020 03:00:00 11,6 10,5 5 3 - - SSW 0,0
03.07.2020 02:00:00 11,8 10,4 9 5 - - SW 0,0
03.07.2020 01:00:00 12,2 10,9 13 7 - - SW 0,0
03.07.2020 00:00:00 12,2 11,7 9 5 - - S 0,0
02.07.2020 23:00:00 12,5 11,9 11 6 - - SSE 0,0
02.07.2020 22:00:00 12,4 11,9 11 6 - - SSE 0,0
02.07.2020 21:00:00 12,5 11,7 9 5 - - SE 0,0
02.07.2020 20:00:00 12,9 11,6 8 4 - - ESE 0,0
02.07.2020 19:00:00 13,2 11,8 8 4 - - E 0,0
02.07.2020 18:00:00 13,0 11,4 4 2 - - NNE 0,0
02.07.2020 17:00:00 13,3 11,7 8 4 - - NE 0,0
02.07.2020 16:00:00 14,3 11,8 4 2 - - NNE 0,0
02.07.2020 15:00:00 13,2 11,4 8 4 - - NNE 0,0
02.07.2020 14:00:00 12,9 11,7 11 6 - - NNE 0,4
02.07.2020 13:00:00 12,7 12,1 9 5 - - N 0,0
02.07.2020 12:00:00 12,1 11,6 15 8 - - N 0,2
02.07.2020 11:00:00 11,7 11,4 11 6 - - N 0,2
02.07.2020 10:00:00 11,2 10,9 13 7 - - N 0,2
02.07.2020 09:00:00 10,9 10,8 15 8 - - N 0,2
02.07.2020 08:00:00 10,5 10,4 15 8 - - NNW 0,4
02.07.2020 07:00:00 10,5 10,4 16 9 - - NW 1,0
02.07.2020 06:00:00 11,3 11,1 13 7 - - NNW 2,6
02.07.2020 05:00:00 11,6 11,5 15 8 - - N 0,8
02.07.2020 04:00:00 12,0 11,8 15 8 - - N 1,2
02.07.2020 03:00:00 12,3 11,9 11 6 - - NNE 0,0
02.07.2020 02:00:00 12,4 12,1 11 6 - - N 0,2
02.07.2020 01:00:00 12,6 12,2 11 6 - - N 0,0
02.07.2020 00:00:00 12,9 12,4 8 4 - - N 0,0
01.07.2020 23:00:00 13,0 12,6 8 4 - - N 0,0
01.07.2020 22:00:00 13,2 12,4 8 4 - - NE 0,0
01.07.2020 21:00:00 13,3 12,6 9 5 - - N 0,0
01.07.2020 20:00:00 14,2 13,2 9 5 - - NNE 0,0
01.07.2020 19:00:00 14,3 13,1 15 8 - - NNE 0,0
01.07.2020 18:00:00 15,4 13,7 15 8 - - N 0,0
01.07.2020 17:00:00 18,5 15,0 11 6 - - SW 0,0
01.07.2020 16:00:00 16,8 13,8 16 9 - - SSW 0,0
01.07.2020 15:00:00 17,5 12,6 8 4 - - SSW 0,0
01.07.2020 14:00:00 17,2 13,0 9 5 - - WSW 0,0
01.07.2020 13:00:00 18,0 12,0 9 5 - - W 0,0
01.07.2020 12:00:00 16,6 12,5 11 6 - - WSW 0,0
01.07.2020 11:00:00 15,9 13,2 11 6 - - WNW 0,0
01.07.2020 10:00:00 15,1 12,8 5 3 - - NW 0,0
01.07.2020 09:00:00 14,2 12,5 4 2 - - NW 0,0
01.07.2020 08:00:00 13,6 12,4 4 2 - - NW 0,0
01.07.2020 07:00:00 13,0 12,3 2 1 - - WNW 0,0
01.07.2020 06:00:00 12,5 12,1 5 3 - - NW 0,0
01.07.2020 05:00:00 12,4 12,0 5 3 - - W 0,0
01.07.2020 04:00:00 12,4 11,8 2 1 - - ENE 0,0
01.07.2020 03:00:00 12,5 11,6 4 2 - - NE 0,0
01.07.2020 02:00:00 13,0 12,5 4 2 - - ENE 0,0
01.07.2020 01:00:00 13,0 12,5 4 2 - - NE 0,0
01.07.2020 00:00:00 13,5 12,9 2 1 - - NE 0,0
30.06.2020 23:00:00 13,9 13,2 0 0 - - N 0,0
30.06.2020 22:00:00 14,1 12,9 4 2 - - SSE 0,0
30.06.2020 21:00:00 14,5 12,8 5 3 - - NW 0,0
30.06.2020 20:00:00 15,4 13,2 0 0 - - N 0,0
30.06.2020 19:00:00 15,6 11,6 5 3 - - WNW 0,0
30.06.2020 18:00:00 15,7 10,8 9 5 - - WSW 0,0
30.06.2020 17:00:00 15,3 11,3 13 7 - - SW 0,0
30.06.2020 16:00:00 15,7 11,5 16 9 - - SW 0,0
30.06.2020 15:00:00 15,4 11,4 24 13 - - SSW 0,0
30.06.2020 14:00:00 15,6 11,8 18 10 - - WSW 0,0
30.06.2020 13:00:00 16,9 12,4 16 9 - - WSW 0,0
30.06.2020 12:00:00 15,4 11,9 21 11 - - WSW 0,0
30.06.2020 11:00:00 14,4 11,7 16 9 - - SW 0,0
30.06.2020 10:00:00 13,4 11,4 13 7 - - SW 0,0
30.06.2020 09:00:00 13,8 11,5 16 9 - - WSW 0,0
30.06.2020 08:00:00 13,4 11,2 11 6 - - WSW 0,0
30.06.2020 07:00:00 12,9 11,6 11 6 - - SW 0,0
30.06.2020 06:00:00 12,5 11,2 15 8 - - SW 0,0
30.06.2020 05:00:00 12,3 11,2 16 9 - - SW 0,0
30.06.2020 04:00:00 12,6 11,2 21 11 - - WSW 0,0
30.06.2020 03:00:00 12,4 11,3 21 11 - - WSW 0,0
30.06.2020 02:00:00 12,7 11,2 22 12 - - SW 0,0
30.06.2020 01:00:00 13,1 11,2 16 9 - - SW 0,0
30.06.2020 00:00:00 13,2 11,0 16 9 - - SW 0,0

tt = Température de l'air
td = dewpoint
ff = Vitesse du vent
fx = gusts
dd = Direction du vent
rr = Quantités de précipitations

stations d'obs. à proximité